Terminal Aerodrome Forecast
Issued by NWS

Home | Current Version | Previous Version | Text Only | Print | Product List | Glossary On
Versions: 1 2 3 4 5 6 7 8 9 10 11 12
000
FTUS46 KPDT 181100
TAFYKM
TAF
KYKM 181139Z 1812/1912 29006KT P6SM SCT100 BKN120
     FM181600 VRB05KT P6SM SCT080 BKN120
     FM182100 28011G19KT P6SM SCT070 BKN100
     FM190300 30009KT P6SM FEW070 SCT090=

USA.gov is the U.S. government's official web portal to all federal, state and local government web resources and services.